createdAt,value
2022-08-04T00:06:05.126Z,101195.66
2022-08-04T00:16:38.231Z,101187.97
2022-08-04T00:27:00.503Z,101187.66
2022-08-04T00:37:23.034Z,101187.28
2022-08-04T00:47:53.196Z,101176.94
2022-08-04T00:58:16.458Z,101175.38
2022-08-04T01:08:58.364Z,101179.00
2022-08-04T01:19:58.846Z,101160.66
2022-08-04T01:30:20.602Z,101145.41
2022-08-04T01:40:44.517Z,101149.44
2022-08-04T01:51:07.897Z,101132.78
2022-08-04T02:01:29.616Z,101119.50
2022-08-04T02:12:16.352Z,101117.88
2022-08-04T02:22:54.786Z,101111.34
2022-08-04T02:33:24.718Z,101107.56
2022-08-04T02:43:51.957Z,101105.25
2022-08-04T02:54:31.706Z,101095.63
2022-08-04T03:05:03.389Z,101084.50
2022-08-04T03:16:02.424Z,101080.00
2022-08-04T03:26:45.765Z,101068.72
2022-08-04T03:37:45.788Z,101066.06
2022-08-04T03:48:26.149Z,101063.47
2022-08-04T03:59:24.424Z,101060.75
2022-08-04T04:09:57.649Z,101051.97
2022-08-04T04:20:54.812Z,101048.84
2022-08-04T04:31:37.622Z,101042.91
2022-08-04T04:42:29.350Z,101038.28
2022-08-04T04:52:56.838Z,101033.97
2022-08-04T05:04:22.071Z,101030.38
2022-08-04T05:14:54.956Z,101038.00
2022-08-04T05:25:25.422Z,101020.91
2022-08-04T05:36:17.046Z,101023.66
2022-08-04T05:46:33.722Z,101014.25
2022-08-04T05:56:57.237Z,101027.09
2022-08-04T06:07:19.251Z,101027.06
2022-08-04T06:19:57.459Z,101019.69
2022-08-04T06:28:30.298Z,101014.75
2022-08-04T06:38:59.739Z,101021.25
2022-08-04T06:49:23.277Z,101013.38
2022-08-04T06:59:46.592Z,101013.25
2022-08-04T07:10:10.336Z,101004.94
2022-08-04T07:20:36.188Z,100993.88
2022-08-04T07:30:58.737Z,101005.22
2022-08-04T07:41:39.094Z,100999.13
2022-08-04T07:52:01.900Z,100986.69
2022-08-04T08:02:24.090Z,100984.44
2022-08-04T08:12:51.307Z,100984.56
2022-08-04T08:23:13.879Z,100975.28
2022-08-04T08:33:35.815Z,100967.09
2022-08-04T08:44:40.145Z,100950.56
2022-08-04T08:55:40.171Z,100950.41
2022-08-04T09:06:38.799Z,100943.53
2022-08-04T09:17:06.655Z,100936.38
2022-08-04T09:27:38.880Z,100938.16
2022-08-04T09:38:16.147Z,100940.63
2022-08-04T09:48:48.486Z,100940.41
2022-08-04T09:59:42.972Z,100935.28
2022-08-04T10:10:26.067Z,100927.34
2022-08-04T10:20:56.817Z,100927.53
2022-08-04T10:31:26.573Z,100933.13
2022-08-04T10:42:10.064Z,100935.34
2022-08-04T10:52:43.183Z,100924.56
2022-08-04T11:03:08.953Z,100934.66
2022-08-04T11:14:05.029Z,100924.31
2022-08-04T11:24:47.980Z,100930.00
2022-08-04T11:35:16.364Z,100921.94
2022-08-04T11:45:50.754Z,100939.94
2022-08-04T11:56:35.859Z,100944.25
2022-08-04T12:07:30.618Z,100956.63
2022-08-04T12:18:08.480Z,100977.00
2022-08-04T12:28:52.706Z,100967.75
2022-08-04T12:39:17.996Z,101003.28
2022-08-04T12:49:44.262Z,100997.94
2022-08-04T13:00:30.126Z,100989.84
2022-08-04T13:10:59.896Z,100977.59
2022-08-04T13:21:49.899Z,100977.16
2022-08-04T13:32:06.397Z,100999.38
2022-08-04T13:42:28.959Z,101014.78
2022-08-04T13:52:55.917Z,101059.72
2022-08-04T14:03:59.540Z,101156.91
2022-08-04T14:14:30.184Z,101142.31
2022-08-04T14:25:16.087Z,101122.00
2022-08-04T14:35:50.357Z,101115.19
2022-08-04T14:46:13.161Z,101107.66
2022-08-04T14:56:46.800Z,101080.06
2022-08-04T15:07:10.033Z,101070.41
2022-08-04T15:17:31.884Z,101074.00
2022-08-04T15:27:54.545Z,101088.75
2022-08-04T15:38:37.031Z,101084.53
2022-08-04T15:49:19.238Z,101094.56
2022-08-04T16:00:01.132Z,101098.41
2022-08-04T16:10:34.127Z,101109.94
2022-08-04T16:20:58.688Z,101114.47
2022-08-04T16:31:20.291Z,101095.31
2022-08-04T16:41:43.118Z,101104.63
2022-08-04T16:52:10.683Z,101096.66
2022-08-04T17:02:36.416Z,101092.09
2022-08-04T17:13:14.339Z,101106.19
2022-08-04T17:24:14.884Z,101098.19
2022-08-04T17:34:26.721Z,101102.09
2022-08-04T17:44:48.906Z,101112.19
2022-08-04T17:55:13.627Z,101118.28
2022-08-04T18:06:02.289Z,101125.63
2022-08-04T18:16:22.885Z,101133.41
2022-08-04T18:26:45.790Z,101146.94
2022-08-04T18:47:58.778Z,101178.13
2022-08-04T18:58:27.182Z,101183.03
2022-08-04T19:08:49.626Z,101189.84
2022-08-04T19:19:11.465Z,101207.66
2022-08-04T19:29:37.792Z,101226.66
2022-08-04T19:40:05.528Z,101248.94
2022-08-04T19:50:27.538Z,101249.59
2022-08-04T20:00:51.507Z,101275.38
2022-08-04T20:11:13.228Z,101278.34
2022-08-04T20:21:55.425Z,101278.16
2022-08-04T20:32:25.730Z,101280.38
2022-08-04T20:42:47.524Z,101291.47
2022-08-04T20:53:16.822Z,101290.75
2022-08-04T21:04:00.602Z,101298.63
2022-08-04T21:14:22.727Z,101302.94
2022-08-04T21:24:51.623Z,101300.25
2022-08-04T21:35:15.175Z,101315.63
2022-08-04T21:45:37.847Z,101315.94
2022-08-04T21:56:06.868Z,101324.09
2022-08-04T22:06:29.224Z,101342.00
2022-08-04T22:16:51.946Z,101340.47
2022-08-04T22:27:35.987Z,101337.69
2022-08-04T22:38:07.207Z,101337.13
2022-08-04T22:48:39.967Z,101354.22
2022-08-04T22:59:05.529Z,101373.34
2022-08-04T23:09:49.066Z,101355.34
2022-08-04T23:20:23.308Z,101363.59
2022-08-04T23:30:50.963Z,101366.16
2022-08-04T23:41:17.295Z,101362.81
2022-08-04T23:51:38.890Z,101370.94
